sensor_id;sensor_type;location;lat;lon;timestamp;temperature;humidity
17774;DHT22;9011;33.236;-97.118;2023-08-01T00:01:39;41.30;68.20
17774;DHT22;9011;33.236;-97.118;2023-08-01T00:04:09;41.30;68.70
17774;DHT22;9011;33.236;-97.118;2023-08-01T00:06:38;41.00;68.70
17774;DHT22;9011;33.236;-97.118;2023-08-01T00:09:06;40.70;69.30
17774;DHT22;9011;33.236;-97.118;2023-08-01T00:11:34;40.70;68.20
17774;DHT22;9011;33.236;-97.118;2023-08-01T00:14:04;40.40;68.80
17774;DHT22;9011;33.236;-97.118;2023-08-01T00:16:33;40.40;68.80
17774;DHT22;9011;33.236;-97.118;2023-08-01T00:19:04;40.40;69.40
17774;DHT22;9011;33.236;-97.118;2023-08-01T00:21:32;39.90;70.30
17774;DHT22;9011;33.236;-97.118;2023-08-01T00:24:00;39.90;70.90
17774;DHT22;9011;33.236;-97.118;2023-08-01T00:26:30;39.80;70.00
17774;DHT22;9011;33.236;-97.118;2023-08-01T00:28:58;39.60;70.80
17774;DHT22;9011;33.236;-97.118;2023-08-01T00:31:28;39.40;71.60
17774;DHT22;9011;33.236;-97.118;2023-08-01T00:34:00;39.40;71.70
17774;DHT22;9011;33.236;-97.118;2023-08-01T00:36:30;39.20;72.60
17774;DHT22;9011;33.236;-97.118;2023-08-01T00:38:58;39.00;73.60
17774;DHT22;9011;33.236;-97.118;2023-08-01T00:41:29;38.60;74.00
17774;DHT22;9011;33.236;-97.118;2023-08-01T00:43:57;38.50;74.90
17774;DHT22;9011;33.236;-97.118;2023-08-01T00:46:32;38.50;74.10
17774;DHT22;9011;33.236;-97.118;2023-08-01T00:49:01;38.40;74.90
17774;DHT22;9011;33.236;-97.118;2023-08-01T00:51:31;38.30;74.70
17774;DHT22;9011;33.236;-97.118;2023-08-01T00:54:00;38.20;75.00
17774;DHT22;9011;33.236;-97.118;2023-08-01T00:56:32;38.00;75.40
17774;DHT22;9011;33.236;-97.118;2023-08-01T00:59:04;37.90;75.30
17774;DHT22;9011;33.236;-97.118;2023-08-01T01:01:34;37.90;75.30
17774;DHT22;9011;33.236;-97.118;2023-08-01T01:04:03;37.80;75.20
17774;DHT22;9011;33.236;-97.118;2023-08-01T01:06:45;37.80;75.20
17774;DHT22;9011;33.236;-97.118;2023-08-01T01:09:23;37.60;75.50
17774;DHT22;9011;33.236;-97.118;2023-08-01T01:11:52;37.60;75.10
17774;DHT22;9011;33.236;-97.118;2023-08-01T01:14:24;37.50;75.80
17774;DHT22;9011;33.236;-97.118;2023-08-01T01:16:54;37.50;76.00
17774;DHT22;9011;33.236;-97.118;2023-08-01T01:19:23;37.40;75.90
17774;DHT22;9011;33.236;-97.118;2023-08-01T01:21:53;37.20;76.50
17774;DHT22;9011;33.236;-97.118;2023-08-01T01:24:22;37.20;76.90
17774;DHT22;9011;33.236;-97.118;2023-08-01T01:26:51;37.10;77.10
17774;DHT22;9011;33.236;-97.118;2023-08-01T01:29:22;36.90;77.30
17774;DHT22;9011;33.236;-97.118;2023-08-01T01:31:52;36.70;77.80
17774;DHT22;9011;33.236;-97.118;2023-08-01T01:34:21;36.70;77.60
17774;DHT22;9011;33.236;-97.118;2023-08-01T01:36:52;36.60;78.10
17774;DHT22;9011;33.236;-97.118;2023-08-01T01:39:20;36.60;78.10
17774;DHT22;9011;33.236;-97.118;2023-08-01T01:41:49;36.50;78.80
17774;DHT22;9011;33.236;-97.118;2023-08-01T01:44:17;36.30;78.90
17774;DHT22;9011;33.236;-97.118;2023-08-01T01:46:45;36.20;78.80
17774;DHT22;9011;33.236;-97.118;2023-08-01T01:49:15;36.10;79.40
17774;DHT22;9011;33.236;-97.118;2023-08-01T01:51:44;36.00;79.80
17774;DHT22;9011;33.236;-97.118;2023-08-01T01:54:14;36.00;80.20
17774;DHT22;9011;33.236;-97.118;2023-08-01T01:56:43;35.80;80.40
17774;DHT22;9011;33.236;-97.118;2023-08-01T01:59:11;35.80;80.60
17774;DHT22;9011;33.236;-97.118;2023-08-01T02:01:40;35.80;80.90
17774;DHT22;9011;33.236;-97.118;2023-08-01T02:04:08;35.60;81.30
17774;DHT22;9011;33.236;-97.118;2023-08-01T02:06:36;35.50;81.60
17774;DHT22;9011;33.236;-97.118;2023-08-01T02:09:05;35.50;81.80
17774;DHT22;9011;33.236;-97.118;2023-08-01T02:11:34;35.40;82.10
17774;DHT22;9011;33.236;-97.118;2023-08-01T02:14:03;35.40;82.60
17774;DHT22;9011;33.236;-97.118;2023-08-01T02:16:31;35.30;82.90
17774;DHT22;9011;33.236;-97.118;2023-08-01T02:19:00;35.20;83.30
17774;DHT22;9011;33.236;-97.118;2023-08-01T02:21:29;35.10;83.50
17774;DHT22;9011;33.236;-97.118;2023-08-01T02:23:57;35.00;83.70
17774;DHT22;9011;33.236;-97.118;2023-08-01T02:26:26;35.10;83.90
17774;DHT22;9011;33.236;-97.118;2023-08-01T02:28:57;34.90;84.70
17774;DHT22;9011;33.236;-97.118;2023-08-01T02:31:25;34.70;85.70
17774;DHT22;9011;33.236;-97.118;2023-08-01T02:33:54;34.80;86.20
17774;DHT22;9011;33.236;-97.118;2023-08-01T02:36:23;34.80;86.90
17774;DHT22;9011;33.236;-97.118;2023-08-01T02:38:51;34.70;87.60
17774;DHT22;9011;33.236;-97.118;2023-08-01T02:41:19;34.50;89.30
17774;DHT22;9011;33.236;-97.118;2023-08-01T02:43:48;34.50;90.30
17774;DHT22;9011;33.236;-97.118;2023-08-01T02:46:18;34.50;90.70
17774;DHT22;9011;33.236;-97.118;2023-08-01T02:48:48;34.50;91.20
17774;DHT22;9011;33.236;-97.118;2023-08-01T02:51:16;34.40;91.70
17774;DHT22;9011;33.236;-97.118;2023-08-01T02:53:44;34.30;91.80
17774;DHT22;9011;33.236;-97.118;2023-08-01T02:56:13;34.40;92.30
17774;DHT22;9011;33.236;-97.118;2023-08-01T02:58:41;34.40;92.60
17774;DHT22;9011;33.236;-97.118;2023-08-01T03:01:10;34.40;92.80
17774;DHT22;9011;33.236;-97.118;2023-08-01T03:03:41;34.40;92.80
17774;DHT22;9011;33.236;-97.118;2023-08-01T03:06:10;34.20;93.20
17774;DHT22;9011;33.236;-97.118;2023-08-01T03:08:57;34.20;93.40
17774;DHT22;9011;33.236;-97.118;2023-08-01T03:11:32;34.20;93.60
17774;DHT22;9011;33.236;-97.118;2023-08-01T03:14:51;34.30;93.60
17774;DHT22;9011;33.236;-97.118;2023-08-01T03:17:29;34.20;93.70
17774;DHT22;9011;33.236;-97.118;2023-08-01T03:20:03;34.30;94.10
17774;DHT22;9011;33.236;-97.118;2023-08-01T03:22:32;34.20;94.30
17774;DHT22;9011;33.236;-97.118;2023-08-01T03:25:02;34.10;94.40
17774;DHT22;9011;33.236;-97.118;2023-08-01T03:27:47;34.10;94.60
17774;DHT22;9011;33.236;-97.118;2023-08-01T03:30:33;34.10;94.70
17774;DHT22;9011;33.236;-97.118;2023-08-01T03:33:21;34.00;95.00
17774;DHT22;9011;33.236;-97.118;2023-08-01T03:35:52;33.90;95.20
17774;DHT22;9011;33.236;-97.118;2023-08-01T03:38:23;33.90;95.30
17774;DHT22;9011;33.236;-97.118;2023-08-01T03:41:11;33.90;95.40
17774;DHT22;9011;33.236;-97.118;2023-08-01T03:44:04;33.90;95.40
17774;DHT22;9011;33.236;-97.118;2023-08-01T03:46:59;33.90;95.50
17774;DHT22;9011;33.236;-97.118;2023-08-01T03:49:28;33.80;95.70
17774;DHT22;9011;33.236;-97.118;2023-08-01T03:51:59;33.70;95.80
17774;DHT22;9011;33.236;-97.118;2023-08-01T03:54:39;33.70;96.00
17774;DHT22;9011;33.236;-97.118;2023-08-01T03:57:11;33.60;96.00
17774;DHT22;9011;33.236;-97.118;2023-08-01T03:59:41;33.70;95.90
17774;DHT22;9011;33.236;-97.118;2023-08-01T04:02:11;33.60;96.00
17774;DHT22;9011;33.236;-97.118;2023-08-01T04:04:42;33.60;96.00
17774;DHT22;9011;33.236;-97.118;2023-08-01T04:07:18;33.50;96.20
17774;DHT22;9011;33.236;-97.118;2023-08-01T04:09:47;33.50;96.30
17774;DHT22;9011;33.236;-97.118;2023-08-01T04:12:17;33.40;96.50
17774;DHT22;9011;33.236;-97.118;2023-08-01T04:14:46;33.30;96.50
17774;DHT22;9011;33.236;-97.118;2023-08-01T04:17:16;33.30;96.50
17774;DHT22;9011;33.236;-97.118;2023-08-01T04:19:48;33.20;96.80
17774;DHT22;9011;33.236;-97.118;2023-08-01T04:22:27;33.30;96.40
17774;DHT22;9011;33.236;-97.118;2023-08-01T04:25:03;33.20;96.40
17774;DHT22;9011;33.236;-97.118;2023-08-01T04:27:32;33.30;96.00
17774;DHT22;9011;33.236;-97.118;2023-08-01T04:30:08;33.30;95.80
17774;DHT22;9011;33.236;-97.118;2023-08-01T04:32:40;33.20;95.90
17774;DHT22;9011;33.236;-97.118;2023-08-01T04:35:13;33.20;95.80
17774;DHT22;9011;33.236;-97.118;2023-08-01T04:37:44;33.30;95.70
17774;DHT22;9011;33.236;-97.118;2023-08-01T04:40:14;33.30;95.70
17774;DHT22;9011;33.236;-97.118;2023-08-01T04:42:46;33.20;95.90
17774;DHT22;9011;33.236;-97.118;2023-08-01T04:45:21;33.10;96.00
17774;DHT22;9011;33.236;-97.118;2023-08-01T04:47:57;33.20;96.00
17774;DHT22;9011;33.236;-97.118;2023-08-01T04:51:05;33.10;96.20
17774;DHT22;9011;33.236;-97.118;2023-08-01T05:00:19;32.90;96.80
17774;DHT22;9011;33.236;-97.118;2023-08-01T05:02:52;32.90;96.80
17774;DHT22;9011;33.236;-97.118;2023-08-01T05:08:35;32.80;96.60
17774;DHT22;9011;33.236;-97.118;2023-08-01T05:11:06;32.80;96.80
17774;DHT22;9011;33.236;-97.118;2023-08-01T05:13:35;32.80;96.90
17774;DHT22;9011;33.236;-97.118;2023-08-01T05:16:08;32.70;96.90
17774;DHT22;9011;33.236;-97.118;2023-08-01T05:18:40;32.70;96.60
17774;DHT22;9011;33.236;-97.118;2023-08-01T05:21:18;32.70;96.80
17774;DHT22;9011;33.236;-97.118;2023-08-01T05:23:49;32.70;96.90
17774;DHT22;9011;33.236;-97.118;2023-08-01T05:26:18;32.60;96.90
17774;DHT22;9011;33.236;-97.118;2023-08-01T05:28:48;32.60;97.10
17774;DHT22;9011;33.236;-97.118;2023-08-01T05:31:23;32.50;97.20
17774;DHT22;9011;33.236;-97.118;2023-08-01T05:33:55;32.50;97.30
17774;DHT22;9011;33.236;-97.118;2023-08-01T05:36:24;32.50;97.40
17774;DHT22;9011;33.236;-97.118;2023-08-01T05:39:02;32.50;97.70
17774;DHT22;9011;33.236;-97.118;2023-08-01T05:41:41;32.50;97.80
17774;DHT22;9011;33.236;-97.118;2023-08-01T05:44:14;32.40;98.10
17774;DHT22;9011;33.236;-97.118;2023-08-01T05:46:45;32.30;98.40
17774;DHT22;9011;33.236;-97.118;2023-08-01T05:49:14;32.30;98.50
17774;DHT22;9011;33.236;-97.118;2023-08-01T05:51:46;32.40;98.60
17774;DHT22;9011;33.236;-97.118;2023-08-01T05:54:17;32.20;99.00
17774;DHT22;9011;33.236;-97.118;2023-08-01T05:56:49;32.20;99.10
17774;DHT22;9011;33.236;-97.118;2023-08-01T05:59:20;32.10;99.20
17774;DHT22;9011;33.236;-97.118;2023-08-01T06:01:55;32.20;99.50
17774;DHT22;9011;33.236;-97.118;2023-08-01T06:04:32;32.20;99.50
17774;DHT22;9011;33.236;-97.118;2023-08-01T06:07:08;32.10;99.50
17774;DHT22;9011;33.236;-97.118;2023-08-01T06:09:47;32.10;99.70
17774;DHT22;9011;33.236;-97.118;2023-08-01T06:12:16;32.00;99.70
17774;DHT22;9011;33.236;-97.118;2023-08-01T06:18:20;32.00;99.90
17774;DHT22;9011;33.236;-97.118;2023-08-01T06:20:58;32.00;99.90
17774;DHT22;9011;33.236;-97.118;2023-08-01T06:24:19;31.80;99.90
17774;DHT22;9011;33.236;-97.118;2023-08-01T06:26:53;31.80;99.90
17774;DHT22;9011;33.236;-97.118;2023-08-01T06:29:31;31.70;99.90
17774;DHT22;9011;33.236;-97.118;2023-08-01T06:32:32;31.70;99.90
17774;DHT22;9011;33.236;-97.118;2023-08-01T06:35:07;31.70;99.90
17774;DHT22;9011;33.236;-97.118;2023-08-01T06:37:38;31.70;99.90
17774;DHT22;9011;33.236;-97.118;2023-08-01T06:40:14;31.60;99.90
17774;DHT22;9011;33.236;-97.118;2023-08-01T06:42:46;31.60;99.90
17774;DHT22;9011;33.236;-97.118;2023-08-01T06:45:16;31.60;99.90
17774;DHT22;9011;33.236;-97.118;2023-08-01T06:47:50;31.60;99.90
17774;DHT22;9011;33.236;-97.118;2023-08-01T06:50:27;31.50;99.90
17774;DHT22;9011;33.236;-97.118;2023-08-01T06:53:33;31.50;99.90
17774;DHT22;9011;33.236;-97.118;2023-08-01T07:00:36;31.40;99.90
17774;DHT22;9011;33.236;-97.118;2023-08-01T07:03:05;31.30;99.90
17774;DHT22;9011;33.236;-97.118;2023-08-01T07:05:42;31.20;99.90
17774;DHT22;9011;33.236;-97.118;2023-08-01T07:08:14;31.20;99.90
17774;DHT22;9011;33.236;-97.118;2023-08-01T07:10:49;31.30;99.90
17774;DHT22;9011;33.236;-97.118;2023-08-01T07:17:14;31.20;99.90
17774;DHT22;9011;33.236;-97.118;2023-08-01T07:36:37;30.90;99.90
17774;DHT22;9011;33.236;-97.118;2023-08-01T07:39:38;30.90;99.90
17774;DHT22;9011;33.236;-97.118;2023-08-01T07:44:54;30.70;99.90
17774;DHT22;9011;33.236;-97.118;2023-08-01T07:47:26;30.70;99.90
17774;DHT22;9011;33.236;-97.118;2023-08-01T07:50:21;30.60;99.90
17774;DHT22;9011;33.236;-97.118;2023-08-01T07:53:10;30.60;99.90
17774;DHT22;9011;33.236;-97.118;2023-08-01T07:55:46;30.40;99.90
17774;DHT22;9011;33.236;-97.118;2023-08-01T07:58:27;30.40;99.90
17774;DHT22;9011;33.236;-97.118;2023-08-01T08:01:12;30.40;99.90
17774;DHT22;9011;33.236;-97.118;2023-08-01T08:04:07;30.40;99.90
17774;DHT22;9011;33.236;-97.118;2023-08-01T08:06:36;30.20;99.90
17774;DHT22;9011;33.236;-97.118;2023-08-01T08:09:10;30.30;99.90
17774;DHT22;9011;33.236;-97.118;2023-08-01T08:14:43;30.20;99.90
17774;DHT22;9011;33.236;-97.118;2023-08-01T08:17:14;30.20;99.90
17774;DHT22;9011;33.236;-97.118;2023-08-01T08:19:45;30.20;99.90
17774;DHT22;9011;33.236;-97.118;2023-08-01T08:22:32;30.20;99.90
17774;DHT22;9011;33.236;-97.118;2023-08-01T08:25:02;30.10;99.90
17774;DHT22;9011;33.236;-97.118;2023-08-01T08:27:35;30.00;99.90
17774;DHT22;9011;33.236;-97.118;2023-08-01T08:30:05;30.00;99.90
17774;DHT22;9011;33.236;-97.118;2023-08-01T08:32:46;30.00;99.90
17774;DHT22;9011;33.236;-97.118;2023-08-01T08:35:17;29.90;99.90
17774;DHT22;9011;33.236;-97.118;2023-08-01T08:37:46;29.90;99.90
17774;DHT22;9011;33.236;-97.118;2023-08-01T08:40:16;29.80;99.90
17774;DHT22;9011;33.236;-97.118;2023-08-01T08:42:46;29.70;99.90
17774;DHT22;9011;33.236;-97.118;2023-08-01T08:45:24;29.80;99.90
17774;DHT22;9011;33.236;-97.118;2023-08-01T08:47:57;29.80;99.90
17774;DHT22;9011;33.236;-97.118;2023-08-01T08:50:29;29.90;99.90
17774;DHT22;9011;33.236;-97.118;2023-08-01T08:53:08;29.80;99.90
17774;DHT22;9011;33.236;-97.118;2023-08-01T08:55:47;29.90;99.90
17774;DHT22;9011;33.236;-97.118;2023-08-01T08:58:16;29.80;99.90
17774;DHT22;9011;33.236;-97.118;2023-08-01T09:00:48;29.80;99.90
17774;DHT22;9011;33.236;-97.118;2023-08-01T09:03:28;29.70;99.90
17774;DHT22;9011;33.236;-97.118;2023-08-01T09:06:04;29.80;99.90
17774;DHT22;9011;33.236;-97.118;2023-08-01T09:08:44;29.70;99.90
17774;DHT22;9011;33.236;-97.118;2023-08-01T09:11:17;29.70;99.90
17774;DHT22;9011;33.236;-97.118;2023-08-01T09:13:51;29.60;99.90
17774;DHT22;9011;33.236;-97.118;2023-08-01T09:16:20;29.60;99.90
17774;DHT22;9011;33.236;-97.118;2023-08-01T09:18:50;29.60;99.90
17774;DHT22;9011;33.236;-97.118;2023-08-01T09:21:20;29.50;99.90
17774;DHT22;9011;33.236;-97.118;2023-08-01T09:23:53;29.50;99.90
17774;DHT22;9011;33.236;-97.118;2023-08-01T09:26:26;29.40;99.90
17774;DHT22;9011;33.236;-97.118;2023-08-01T09:29:07;29.40;99.90
17774;DHT22;9011;33.236;-97.118;2023-08-01T09:31:58;29.30;99.90
17774;DHT22;9011;33.236;-97.118;2023-08-01T09:34:27;29.30;99.90
17774;DHT22;9011;33.236;-97.118;2023-08-01T09:37:01;29.30;99.90
17774;DHT22;9011;33.236;-97.118;2023-08-01T09:39:33;29.40;99.90
17774;DHT22;9011;33.236;-97.118;2023-08-01T09:42:08;29.40;99.90
17774;DHT22;9011;33.236;-97.118;2023-08-01T09:44:45;29.40;99.90
17774;DHT22;9011;33.236;-97.118;2023-08-01T09:47:14;29.50;99.90
17774;DHT22;9011;33.236;-97.118;2023-08-01T09:49:49;29.50;99.90
17774;DHT22;9011;33.236;-97.118;2023-08-01T09:52:27;29.40;99.90
17774;DHT22;9011;33.236;-97.118;2023-08-01T09:54:58;29.40;99.90
17774;DHT22;9011;33.236;-97.118;2023-08-01T09:57:30;29.40;99.90
17774;DHT22;9011;33.236;-97.118;2023-08-01T10:00:32;29.30;99.90
17774;DHT22;9011;33.236;-97.118;2023-08-01T10:03:18;29.40;99.90
17774;DHT22;9011;33.236;-97.118;2023-08-01T10:05:49;29.20;99.90
17774;DHT22;9011;33.236;-97.118;2023-08-01T10:08:29;29.20;99.90
17774;DHT22;9011;33.236;-97.118;2023-08-01T10:11:02;29.30;99.90
17774;DHT22;9011;33.236;-97.118;2023-08-01T10:13:42;29.20;99.90
17774;DHT22;9011;33.236;-97.118;2023-08-01T10:16:16;29.30;99.90
17774;DHT22;9011;33.236;-97.118;2023-08-01T10:18:45;29.10;99.90
17774;DHT22;9011;33.236;-97.118;2023-08-01T10:21:15;29.10;99.90
17774;DHT22;9011;33.236;-97.118;2023-08-01T10:23:45;29.10;99.90
17774;DHT22;9011;33.236;-97.118;2023-08-01T10:26:14;29.10;99.90
17774;DHT22;9011;33.236;-97.118;2023-08-01T10:28:51;29.00;99.90
17774;DHT22;9011;33.236;-97.118;2023-08-01T10:31:20;29.00;99.90
17774;DHT22;9011;33.236;-97.118;2023-08-01T10:33:49;28.90;99.90
17774;DHT22;9011;33.236;-97.118;2023-08-01T10:36:20;28.90;99.90
17774;DHT22;9011;33.236;-97.118;2023-08-01T10:38:50;29.00;99.90
17774;DHT22;9011;33.236;-97.118;2023-08-01T10:41:20;28.90;99.90
17774;DHT22;9011;33.236;-97.118;2023-08-01T10:43:48;29.00;99.90
17774;DHT22;9011;33.236;-97.118;2023-08-01T10:46:17;29.00;99.90
17774;DHT22;9011;33.236;-97.118;2023-08-01T10:48:49;29.00;99.90
17774;DHT22;9011;33.236;-97.118;2023-08-01T10:51:18;28.90;99.90
17774;DHT22;9011;33.236;-97.118;2023-08-01T10:53:46;28.90;99.90
17774;DHT22;9011;33.236;-97.118;2023-08-01T10:56:19;28.90;99.90
17774;DHT22;9011;33.236;-97.118;2023-08-01T10:58:49;28.80;99.90
17774;DHT22;9011;33.236;-97.118;2023-08-01T11:01:17;28.80;99.90
17774;DHT22;9011;33.236;-97.118;2023-08-01T11:03:46;28.70;99.90
17774;DHT22;9011;33.236;-97.118;2023-08-01T11:06:14;28.70;99.90
17774;DHT22;9011;33.236;-97.118;2023-08-01T11:08:42;28.70;99.90
17774;DHT22;9011;33.236;-97.118;2023-08-01T11:11:12;28.70;99.90
17774;DHT22;9011;33.236;-97.118;2023-08-01T11:13:52;28.70;99.90
17774;DHT22;9011;33.236;-97.118;2023-08-01T11:16:24;28.60;99.90
17774;DHT22;9011;33.236;-97.118;2023-08-01T11:18:53;28.60;99.90
17774;DHT22;9011;33.236;-97.118;2023-08-01T11:21:26;28.60;99.90
17774;DHT22;9011;33.236;-97.118;2023-08-01T11:23:57;28.70;99.90
17774;DHT22;9011;33.236;-97.118;2023-08-01T11:26:25;28.70;99.90
17774;DHT22;9011;33.236;-97.118;2023-08-01T11:28:55;28.60;99.90
17774;DHT22;9011;33.236;-97.118;2023-08-01T11:31:23;28.70;99.90
17774;DHT22;9011;33.236;-97.118;2023-08-01T11:33:57;28.60;99.90
17774;DHT22;9011;33.236;-97.118;2023-08-01T11:36:27;28.50;99.90
17774;DHT22;9011;33.236;-97.118;2023-08-01T11:38:57;28.40;99.90
17774;DHT22;9011;33.236;-97.118;2023-08-01T11:41:27;28.50;99.90
17774;DHT22;9011;33.236;-97.118;2023-08-01T11:44:01;28.40;99.90
17774;DHT22;9011;33.236;-97.118;2023-08-01T11:46:34;28.40;99.90
17774;DHT22;9011;33.236;-97.118;2023-08-01T11:49:03;28.30;99.90
17774;DHT22;9011;33.236;-97.118;2023-08-01T11:51:39;28.30;99.90
17774;DHT22;9011;33.236;-97.118;2023-08-01T11:54:08;28.30;99.90
17774;DHT22;9011;33.236;-97.118;2023-08-01T11:56:37;28.20;99.90
17774;DHT22;9011;33.236;-97.118;2023-08-01T11:59:11;28.10;99.90
17774;DHT22;9011;33.236;-97.118;2023-08-01T12:01:40;28.20;99.90
17774;DHT22;9011;33.236;-97.118;2023-08-01T12:04:09;28.20;99.90
17774;DHT22;9011;33.236;-97.118;2023-08-01T12:06:38;28.20;99.90
17774;DHT22;9011;33.236;-97.118;2023-08-01T12:09:09;28.10;99.90
17774;DHT22;9011;33.236;-97.118;2023-08-01T12:11:38;28.10;99.90
17774;DHT22;9011;33.236;-97.118;2023-08-01T12:14:08;28.00;99.90
17774;DHT22;9011;33.236;-97.118;2023-08-01T12:16:40;28.10;99.90
17774;DHT22;9011;33.236;-97.118;2023-08-01T12:19:09;28.10;99.90
17774;DHT22;9011;33.236;-97.118;2023-08-01T12:21:37;28.10;99.90
17774;DHT22;9011;33.236;-97.118;2023-08-01T12:24:05;28.20;99.90
17774;DHT22;9011;33.236;-97.118;2023-08-01T12:26:34;28.20;99.90
17774;DHT22;9011;33.236;-97.118;2023-08-01T12:29:02;28.30;99.90
17774;DHT22;9011;33.236;-97.118;2023-08-01T12:31:31;28.30;99.90
17774;DHT22;9011;33.236;-97.118;2023-08-01T12:34:01;28.30;99.90
17774;DHT22;9011;33.236;-97.118;2023-08-01T12:36:29;28.30;99.90
17774;DHT22;9011;33.236;-97.118;2023-08-01T12:38:58;28.40;99.90
17774;DHT22;9011;33.236;-97.118;2023-08-01T12:41:26;28.40;99.90
17774;DHT22;9011;33.236;-97.118;2023-08-01T12:43:54;28.50;99.90
17774;DHT22;9011;33.236;-97.118;2023-08-01T12:46:23;28.50;99.90
17774;DHT22;9011;33.236;-97.118;2023-08-01T12:48:51;28.60;99.90
17774;DHT22;9011;33.236;-97.118;2023-08-01T12:51:21;28.60;99.90
17774;DHT22;9011;33.236;-97.118;2023-08-01T12:53:49;28.70;99.90
17774;DHT22;9011;33.236;-97.118;2023-08-01T12:56:18;28.80;99.90
17774;DHT22;9011;33.236;-97.118;2023-08-01T12:58:46;28.80;99.90
17774;DHT22;9011;33.236;-97.118;2023-08-01T13:01:14;28.90;99.90
17774;DHT22;9011;33.236;-97.118;2023-08-01T13:03:42;29.00;99.90
17774;DHT22;9011;33.236;-97.118;2023-08-01T13:06:11;29.00;99.90
17774;DHT22;9011;33.236;-97.118;2023-08-01T13:08:41;29.10;99.90
17774;DHT22;9011;33.236;-97.118;2023-08-01T13:11:10;29.20;99.90
17774;DHT22;9011;33.236;-97.118;2023-08-01T13:13:40;29.10;99.90
17774;DHT22;9011;33.236;-97.118;2023-08-01T13:16:09;29.30;99.90
17774;DHT22;9011;33.236;-97.118;2023-08-01T13:18:37;29.30;99.90
17774;DHT22;9011;33.236;-97.118;2023-08-01T13:21:10;29.40;99.90
17774;DHT22;9011;33.236;-97.118;2023-08-01T13:23:38;29.50;99.90
17774;DHT22;9011;33.236;-97.118;2023-08-01T13:26:08;29.50;99.90
17774;DHT22;9011;33.236;-97.118;2023-08-01T13:28:37;29.60;99.90
17774;DHT22;9011;33.236;-97.118;2023-08-01T13:31:05;29.70;99.90
17774;DHT22;9011;33.236;-97.118;2023-08-01T13:33:33;29.70;99.90
17774;DHT22;9011;33.236;-97.118;2023-08-01T13:36:02;29.90;99.90
17774;DHT22;9011;33.236;-97.118;2023-08-01T13:38:30;29.90;99.90
17774;DHT22;9011;33.236;-97.118;2023-08-01T13:40:59;30.00;99.90
17774;DHT22;9011;33.236;-97.118;2023-08-01T13:43:29;30.10;99.90
17774;DHT22;9011;33.236;-97.118;2023-08-01T13:45:58;30.20;99.90
17774;DHT22;9011;33.236;-97.118;2023-08-01T13:48:26;30.30;99.90
17774;DHT22;9011;33.236;-97.118;2023-08-01T13:50:58;30.40;99.90
17774;DHT22;9011;33.236;-97.118;2023-08-01T13:53:26;30.50;99.90
17774;DHT22;9011;33.236;-97.118;2023-08-01T13:55:55;30.50;99.90
17774;DHT22;9011;33.236;-97.118;2023-08-01T13:58:23;30.70;99.90
17774;DHT22;9011;33.236;-97.118;2023-08-01T14:00:53;30.70;99.90
17774;DHT22;9011;33.236;-97.118;2023-08-01T14:03:21;30.80;99.90
17774;DHT22;9011;33.236;-97.118;2023-08-01T14:05:50;30.90;99.90
17774;DHT22;9011;33.236;-97.118;2023-08-01T14:08:18;31.00;99.90
17774;DHT22;9011;33.236;-97.118;2023-08-01T14:10:46;31.10;99.90
17774;DHT22;9011;33.236;-97.118;2023-08-01T14:13:15;31.30;99.90
17774;DHT22;9011;33.236;-97.118;2023-08-01T14:15:43;31.30;99.90
17774;DHT22;9011;33.236;-97.118;2023-08-01T14:18:13;31.50;99.90
17774;DHT22;9011;33.236;-97.118;2023-08-01T14:20:41;31.60;99.90
17774;DHT22;9011;33.236;-97.118;2023-08-01T14:23:10;31.70;99.90
17774;DHT22;9011;33.236;-97.118;2023-08-01T14:25:38;31.80;99.90
17774;DHT22;9011;33.236;-97.118;2023-08-01T14:28:06;31.80;99.90
17774;DHT22;9011;33.236;-97.118;2023-08-01T14:30:35;31.90;99.90
17774;DHT22;9011;33.236;-97.118;2023-08-01T14:33:04;32.10;99.90
17774;DHT22;9011;33.236;-97.118;2023-08-01T14:35:35;32.20;99.90
17774;DHT22;9011;33.236;-97.118;2023-08-01T14:38:03;32.20;99.90
17774;DHT22;9011;33.236;-97.118;2023-08-01T14:40:34;32.40;99.90
17774;DHT22;9011;33.236;-97.118;2023-08-01T14:43:05;32.40;99.90
17774;DHT22;9011;33.236;-97.118;2023-08-01T14:45:37;32.50;99.90
17774;DHT22;9011;33.236;-97.118;2023-08-01T14:48:06;32.70;99.90
17774;DHT22;9011;33.236;-97.118;2023-08-01T14:50:37;32.60;99.90
17774;DHT22;9011;33.236;-97.118;2023-08-01T14:53:06;32.70;99.90
17774;DHT22;9011;33.236;-97.118;2023-08-01T14:55:34;32.70;99.90
17774;DHT22;9011;33.236;-97.118;2023-08-01T14:58:02;32.80;99.90
17774;DHT22;9011;33.236;-97.118;2023-08-01T15:00:35;32.80;99.90
17774;DHT22;9011;33.236;-97.118;2023-08-01T15:03:03;33.10;99.90
17774;DHT22;9011;33.236;-97.118;2023-08-01T15:05:32;33.20;99.90
17774;DHT22;9011;33.236;-97.118;2023-08-01T15:08:02;33.30;99.50
17774;DHT22;9011;33.236;-97.118;2023-08-01T15:10:32;33.50;99.50
17774;DHT22;9011;33.236;-97.118;2023-08-01T15:13:00;33.60;99.50
17774;DHT22;9011;33.236;-97.118;2023-08-01T15:15:28;33.60;99.20
17774;DHT22;9011;33.236;-97.118;2023-08-01T15:17:57;33.80;98.80
17774;DHT22;9011;33.236;-97.118;2023-08-01T15:20:25;33.80;98.70
17774;DHT22;9011;33.236;-97.118;2023-08-01T15:22:53;33.90;98.90
17774;DHT22;9011;33.236;-97.118;2023-08-01T15:25:23;34.00;97.40
17774;DHT22;9011;33.236;-97.118;2023-08-01T15:27:52;34.20;97.00
17774;DHT22;9011;33.236;-97.118;2023-08-01T15:30:20;34.40;96.60
17774;DHT22;9011;33.236;-97.118;2023-08-01T15:32:48;34.50;96.10
17774;DHT22;9011;33.236;-97.118;2023-08-01T15:35:17;34.60;96.10
17774;DHT22;9011;33.236;-97.118;2023-08-01T15:37:45;34.80;96.00
17774;DHT22;9011;33.236;-97.118;2023-08-01T15:40:13;34.90;95.50
17774;DHT22;9011;33.236;-97.118;2023-08-01T15:42:43;34.80;95.50
17774;DHT22;9011;33.236;-97.118;2023-08-01T15:45:12;34.80;95.10
17774;DHT22;9011;33.236;-97.118;2023-08-01T15:47:41;35.20;95.40
17774;DHT22;9011;33.236;-97.118;2023-08-01T15:50:09;35.30;94.80
17774;DHT22;9011;33.236;-97.118;2023-08-01T15:52:37;35.40;94.80
17774;DHT22;9011;33.236;-97.118;2023-08-01T15:55:07;35.40;94.60
17774;DHT22;9011;33.236;-97.118;2023-08-01T15:57:36;35.50;94.50
17774;DHT22;9011;33.236;-97.118;2023-08-01T16:00:09;35.80;94.30
17774;DHT22;9011;33.236;-97.118;2023-08-01T16:02:38;36.00;93.80
17774;DHT22;9011;33.236;-97.118;2023-08-01T16:05:06;36.10;93.30
17774;DHT22;9011;33.236;-97.118;2023-08-01T16:07:36;36.20;94.00
17774;DHT22;9011;33.236;-97.118;2023-08-01T16:10:05;36.00;93.70
17774;DHT22;9011;33.236;-97.118;2023-08-01T16:12:33;36.10;93.30
17774;DHT22;9011;33.236;-97.118;2023-08-01T16:15:02;36.40;93.20
17774;DHT22;9011;33.236;-97.118;2023-08-01T16:17:32;36.40;92.60
17774;DHT22;9011;33.236;-97.118;2023-08-01T16:20:00;36.60;92.80
17774;DHT22;9011;33.236;-97.118;2023-08-01T16:22:29;36.50;93.10
17774;DHT22;9011;33.236;-97.118;2023-08-01T16:24:58;36.50;92.20
17774;DHT22;9011;33.236;-97.118;2023-08-01T16:27:26;36.70;92.00
17774;DHT22;9011;33.236;-97.118;2023-08-01T16:29:54;37.00;91.60